Aérodrome :
LOGIN :

S'inscrire | Disclaimer

   EN    FR    IT 

 










Légende :    VFR   VFR Marginal   IFR   IFR Intensif   IFR Très Intensif
Visi : 
Plafond : 
>= 8 km
>= 3000ft
5 à 8 km
1000 à 3000 ft
1500m à 5 km
500 à 1000 ft
800 à 1500m
200 à 500 ft
< 800m
< 200 ft
Symboles :   Orages  Brouillard  Fortes neiges  Fortes précipitations  Vent > 20 kt
SIGMETs :   Divers  Orages  Givrage  Turbulence  Onde Orograph.  Cendres Volcan.






- Altitude de l'aérodrome : 2077 ft
- Code IATA : FMM


EDJA - Memmingen

DERNIER METAR :
  • 232320Z AUTO 05006KT 9999 // NCD 00/M00 Q1027

METARs EXPIRÉS :
  • 232250Z AUTO 07006KT 9999 // NCD 02/01 Q1027
  • 232220Z AUTO 07006KT 9999 // NCD 01/00 Q1027
  • 232150Z AUTO 07006KT 9999 // NCD 02/00 Q1028
  • 232120Z AUTO 08008KT 9999 // NCD 03/01 Q1028

TAF TAF EDJA
Valide du 23 à 18h jusqu'au 24 à 03h UTC


231700Z 2318/2403 06006KT CAVOK
PROB30
TEMPO 2401/2403 0800 FZFG VV002



MET'MAP, la Météo Aéronautique d'un coup d'oeil ! - Copyright ORBIFLY Décembre 2007 - Disclaimer

ORBIFLY MET'MAP TEAM :

Programmation & Développement : Alexandra Zaïnal
Sur une idée originale de : Baudouin d'Aumeries
Assistance à la programmation : Marc-Olivier Méhu
Soutien technique & logistique : Manuel Goepfert

Contact : metmap@orbifly.com




SOURCES & CREDITS :

   NOAA